Terminal Aerodrome Forecast
Issued by NWS

Home | Current Version | Previous Version | Text Only | Print | Product List | Glossary On
Versions: 1 2 3 4 5 6 7 8 9 10 11 12 13 14
000
FTUS42 KMLB 221740
TAFSUA
TAF
KSUA 221740Z 2218/2318 11014G22KT P6SM VCTS BKN020CB
      TEMPO 2218/2221 21018G26KT 1SM +TSRA BKN012CB
     FM230000 11010KT P6SM VCSH SCT020 BKN030
     FM230600 15006KT P6SM VCSH SCT025 BKN070
     FM231400 16011G18KT P6SM VCSH SCT025 BKN080=

USA.gov is the U.S. government's official web portal to all federal, state and local government web resources and services.